Terminal Aerodrome Forecast
Issued by NWS

Home | Current Version | Previous Version | Text Only | Print | Product List | Glossary On
Versions: 1 2 3 4 5 6 7 8 9 10 11 12 13 14 15 16 17 18 19 20 21
742
FTUS43 KTOP 262127 AAB
TAFFOE
TAF AMD
KFOE 262127Z 2621/2718 31011G19KT P6SM TSRA BKN035CB
      TEMPO 2621/2624 33025G35KT 3SM TSRA OVC020CB
     FM270100 15012KT P6SM VCTS SCT025 BKN040CB
     FM270400 15012KT 5SM TSRA OVC035CB
     FM270700 14008KT P6SM BKN020=

USA.gov is the U.S. government's official web portal to all federal, state and local government web resources and services.